createdAt,value
2018-02-17T00:00:20.706Z,2.50
2018-02-17T00:02:48.200Z,2.50
2018-02-17T00:05:15.676Z,2.50
2018-02-17T00:07:43.192Z,2.50
2018-02-17T00:10:10.683Z,2.30
2018-02-17T00:12:38.164Z,2.30
2018-02-17T00:15:05.635Z,2.30
2018-02-17T00:17:33.454Z,2.30
2018-02-17T00:20:01.710Z,2.30
2018-02-17T00:22:29.220Z,2.30
2018-02-17T00:24:57.456Z,2.30
2018-02-17T00:27:24.943Z,2.40
2018-02-17T00:29:52.422Z,2.30
2018-02-17T00:32:20.253Z,2.30
2018-02-17T00:34:48.503Z,2.30
2018-02-17T00:37:15.979Z,2.30
2018-02-17T00:39:43.822Z,2.20
2018-02-17T00:42:11.332Z,2.30
2018-02-17T00:44:38.821Z,2.30
2018-02-17T00:47:06.690Z,2.30
2018-02-17T00:49:34.175Z,2.30
2018-02-17T00:52:01.640Z,2.30
2018-02-17T00:54:29.440Z,2.20
2018-02-17T00:56:57.315Z,2.10
2018-02-17T00:59:24.797Z,2.00
2018-02-17T01:01:52.318Z,2.00
2018-02-17T01:04:20.563Z,1.90
2018-02-17T01:06:48.090Z,1.90
2018-02-17T01:09:15.582Z,1.90
2018-02-17T01:11:43.079Z,1.90
2018-02-17T01:14:11.316Z,1.80
2018-02-17T01:16:39.124Z,1.80
2018-02-17T01:19:06.604Z,1.80
2018-02-17T01:21:34.096Z,1.70
2018-02-17T01:24:01.634Z,1.70
2018-02-17T01:26:29.100Z,1.70
2018-02-17T01:28:56.952Z,1.70
2018-02-17T01:31:24.677Z,1.70
2018-02-17T01:33:52.924Z,1.70
2018-02-17T01:36:20.399Z,1.70
2018-02-17T01:38:47.908Z,1.70
2018-02-17T01:41:15.419Z,1.70
2018-02-17T01:43:42.906Z,1.80
2018-02-17T01:46:10.560Z,1.80
2018-02-17T01:48:38.919Z,1.80
2018-02-17T01:51:07.189Z,1.80
2018-02-17T01:53:34.962Z,1.80
2018-02-17T01:56:03.219Z,1.70
2018-02-17T01:58:30.700Z,1.70
2018-02-17T02:00:59.172Z,1.50
2018-02-17T02:03:26.635Z,1.50
2018-02-17T02:05:54.886Z,1.60
2018-02-17T02:08:22.544Z,1.60
2018-02-17T02:10:50.034Z,1.60
2018-02-17T02:13:19.193Z,1.60
2018-02-17T02:15:46.991Z,1.60
2018-02-17T02:18:15.234Z,1.70
2018-02-17T02:20:42.714Z,1.60
2018-02-17T02:23:10.391Z,1.60
2018-02-17T02:25:38.671Z,1.60
2018-02-17T02:28:06.896Z,1.60
2018-02-17T02:30:35.167Z,1.70
2018-02-17T02:33:02.664Z,1.70
2018-02-17T02:35:30.157Z,1.70
2018-02-17T02:37:57.796Z,1.70
2018-02-17T02:40:26.045Z,1.70
2018-02-17T02:42:53.517Z,1.70
2018-02-17T02:45:21.393Z,1.60
2018-02-17T02:47:49.637Z,1.70
2018-02-17T02:50:17.122Z,1.70
2018-02-17T02:52:45.597Z,1.60
2018-02-17T02:55:13.066Z,1.60
2018-02-17T02:57:40.586Z,1.50
2018-02-17T03:00:08.108Z,1.50
2018-02-17T03:02:35.576Z,1.50
2018-02-17T03:05:03.071Z,1.50
2018-02-17T03:07:30.977Z,1.50
2018-02-17T03:09:58.464Z,1.40
2018-02-17T03:12:25.928Z,1.50
2018-02-17T03:14:53.844Z,1.50
2018-02-17T03:17:21.328Z,1.40
2018-02-17T03:19:48.819Z,1.40
2018-02-17T03:22:16.578Z,1.30
2018-02-17T03:24:44.052Z,1.40
2018-02-17T03:27:11.535Z,1.30
2018-02-17T03:29:39.965Z,1.50
2018-02-17T03:32:07.432Z,1.50
2018-02-17T03:34:34.908Z,1.50
2018-02-17T03:37:02.724Z,1.50
2018-02-17T03:39:30.203Z,1.60
2018-02-17T03:41:57.755Z,1.60
2018-02-17T03:44:25.291Z,1.60
2018-02-17T03:46:53.656Z,1.60
2018-02-17T03:49:21.524Z,1.60
2018-02-17T03:51:49.939Z,1.70
2018-02-17T03:54:17.494Z,1.60
2018-02-17T03:56:44.951Z,1.60
2018-02-17T03:59:12.757Z,1.50
2018-02-17T04:01:40.239Z,1.50
2018-02-17T04:04:08.475Z,1.50
2018-02-17T04:06:36.175Z,1.50
2018-02-17T04:09:04.417Z,1.50
2018-02-17T04:11:31.899Z,1.50
2018-02-17T04:14:00.500Z,1.50
2018-02-17T04:16:27.963Z,1.40
2018-02-17T04:18:55.435Z,1.60
2018-02-17T04:21:23.210Z,1.60
2018-02-17T04:23:50.719Z,1.50
2018-02-17T04:26:18.979Z,1.50
2018-02-17T04:28:46.610Z,1.40
2018-02-17T04:31:14.121Z,1.40
2018-02-17T04:33:42.368Z,1.50
2018-02-17T04:36:09.882Z,1.50
2018-02-17T04:38:37.399Z,1.50
2018-02-17T04:41:06.219Z,1.50
2018-02-17T04:43:39.328Z,1.50
2018-02-17T04:46:12.806Z,1.60
2018-02-17T04:48:52.334Z,1.60
2018-02-17T04:51:22.158Z,1.60
2018-02-17T04:53:51.120Z,1.50
2018-02-17T04:56:35.292Z,1.60
2018-02-17T05:12:33.640Z,1.70
2018-02-17T05:15:07.611Z,1.80
2018-02-17T05:17:50.163Z,1.70
2018-02-17T05:20:17.645Z,1.70
2018-02-17T05:22:46.645Z,1.70
2018-02-17T05:25:17.972Z,1.80
2018-02-17T05:27:50.401Z,1.80
2018-02-17T05:30:19.832Z,1.80
2018-02-17T05:46:16.972Z,1.90
2018-02-17T05:48:47.409Z,1.90
2018-02-17T05:51:14.884Z,1.80
2018-02-17T05:53:42.698Z,1.70
2018-02-17T05:56:10.201Z,1.80
2018-02-17T05:58:37.643Z,1.60
2018-02-17T06:01:06.292Z,1.70
2018-02-17T06:03:33.756Z,1.70
2018-02-17T06:06:01.247Z,1.80
2018-02-17T06:08:30.139Z,1.80
2018-02-17T06:10:57.607Z,1.80
2018-02-17T06:13:25.096Z,1.80
2018-02-17T06:15:52.887Z,1.70
2018-02-17T06:18:21.127Z,1.70
2018-02-17T06:20:48.625Z,1.70
2018-02-17T06:23:17.191Z,1.70
2018-02-17T06:25:46.348Z,1.70
2018-02-17T06:28:13.823Z,1.70
2018-02-17T06:30:41.613Z,1.70
2018-02-17T06:33:09.860Z,1.50
2018-02-17T06:35:37.344Z,1.50
2018-02-17T06:38:05.859Z,1.60
2018-02-17T06:40:33.340Z,1.60
2018-02-17T06:43:00.817Z,1.60
2018-02-17T06:45:28.310Z,1.70
2018-02-17T06:47:56.577Z,2.80
2018-02-17T06:50:24.818Z,1.80
2018-02-17T06:52:52.317Z,1.80
2018-02-17T06:55:20.552Z,1.90
2018-02-17T06:57:48.032Z,1.90
2018-02-17T07:00:16.541Z,1.80
2018-02-17T07:02:44.012Z,1.80
2018-02-17T07:05:11.501Z,1.60
2018-02-17T07:07:39.192Z,1.70
2018-02-17T07:10:07.430Z,1.70
2018-02-17T07:12:34.900Z,1.70
2018-02-17T07:15:02.705Z,1.70
2018-02-17T07:17:30.952Z,1.80
2018-02-17T07:19:58.457Z,1.90
2018-02-17T07:22:25.939Z,1.90
2018-02-17T07:24:53.422Z,2.00
2018-02-17T07:27:20.918Z,2.00
2018-02-17T07:29:48.756Z,2.10
2018-02-17T07:32:17.004Z,2.20
2018-02-17T07:34:44.484Z,2.20
2018-02-17T07:37:11.994Z,2.20
2018-02-17T07:39:39.495Z,2.30
2018-02-17T07:42:07.030Z,2.20
2018-02-17T07:44:34.673Z,2.30
2018-02-17T07:47:02.227Z,2.30
2018-02-17T07:49:29.694Z,2.30
2018-02-17T07:51:57.224Z,2.40
2018-02-17T07:54:25.139Z,2.60
2018-02-17T07:56:53.481Z,2.70
2018-02-17T07:59:20.980Z,2.80
2018-02-17T08:01:48.472Z,2.80
2018-02-17T08:04:16.741Z,2.80
2018-02-17T08:06:44.632Z,2.90
2018-02-17T08:09:12.169Z,2.90
2018-02-17T08:11:39.672Z,3.00
2018-02-17T08:14:07.484Z,3.10
2018-02-17T08:16:35.725Z,3.20
2018-02-17T08:19:03.200Z,3.20
2018-02-17T08:21:30.992Z,3.20
2018-02-17T08:23:59.229Z,4.40
2018-02-17T08:26:26.720Z,4.40
2018-02-17T08:28:54.480Z,4.20
2018-02-17T08:31:22.799Z,4.30
2018-02-17T08:33:50.275Z,4.30
2018-02-17T08:36:17.770Z,4.50
2018-02-17T08:38:45.999Z,4.80
2018-02-17T08:41:13.550Z,4.80
2018-02-17T08:43:41.272Z,5.00
2018-02-17T08:46:09.585Z,5.40
2018-02-17T08:48:37.072Z,5.30
2018-02-17T08:51:04.917Z,5.40
2018-02-17T08:53:32.383Z,5.50
2018-02-17T08:56:00.621Z,5.70
2018-02-17T08:58:28.476Z,5.70
2018-02-17T09:00:56.721Z,6.10
2018-02-17T09:03:24.345Z,6.00
2018-02-17T09:05:51.847Z,6.70
2018-02-17T09:08:19.334Z,7.40
2018-02-17T09:10:48.825Z,8.20
2018-02-17T09:13:16.954Z,9.20
2018-02-17T09:15:45.241Z,9.90
2018-02-17T09:18:13.607Z,10.50
2018-02-17T09:20:41.689Z,10.80
2018-02-17T09:23:09.259Z,10.70
2018-02-17T09:25:36.746Z,11.30
2018-02-17T09:28:05.223Z,9.20
2018-02-17T09:30:33.497Z,8.90
2018-02-17T09:33:02.020Z,9.10
2018-02-17T09:35:29.882Z,9.10
2018-02-17T09:37:57.546Z,8.70
2018-02-17T09:40:25.104Z,8.40
2018-02-17T09:42:52.930Z,8.20
2018-02-17T09:45:20.403Z,8.40
2018-02-17T09:47:48.644Z,8.40
2018-02-17T09:50:16.457Z,8.40
2018-02-17T09:52:43.980Z,8.70
2018-02-17T09:55:11.451Z,9.20
2018-02-17T09:57:39.762Z,9.90
2018-02-17T10:00:07.330Z,9.90
2018-02-17T10:02:34.825Z,10.20
2018-02-17T10:05:03.153Z,9.50
2018-02-17T10:07:30.627Z,9.50
2018-02-17T10:09:58.121Z,9.30
2018-02-17T10:12:26.645Z,9.00
2018-02-17T10:14:54.196Z,9.00
2018-02-17T10:17:21.798Z,9.20
2018-02-17T10:19:49.484Z,9.10
2018-02-17T10:22:17.017Z,9.10
2018-02-17T10:24:44.513Z,9.00
2018-02-17T10:27:13.735Z,8.50
2018-02-17T10:29:41.204Z,8.50
2018-02-17T10:32:08.688Z,8.20
2018-02-17T10:34:36.908Z,8.60
2018-02-17T10:37:05.168Z,8.70
2018-02-17T10:39:34.211Z,8.90
2018-02-17T10:42:01.764Z,8.90
2018-02-17T10:44:29.234Z,8.90
2018-02-17T10:46:56.700Z,9.10
2018-02-17T10:49:25.036Z,9.40
2018-02-17T10:51:52.528Z,9.40
2018-02-17T10:54:20.003Z,9.30
2018-02-17T10:56:47.488Z,9.00
2018-02-17T10:59:15.723Z,9.50
2018-02-17T11:01:43.210Z,9.50
2018-02-17T11:04:11.003Z,9.90
2018-02-17T11:06:38.476Z,9.60
2018-02-17T11:09:05.965Z,9.30
2018-02-17T11:11:33.768Z,9.50
2018-02-17T11:14:01.365Z,9.60
2018-02-17T11:16:28.843Z,9.10
2018-02-17T11:18:56.328Z,9.10
2018-02-17T11:21:24.609Z,9.20
2018-02-17T11:23:52.853Z,9.00
2018-02-17T11:26:20.386Z,9.00
2018-02-17T11:28:47.876Z,9.10
2018-02-17T11:31:15.363Z,9.30
2018-02-17T11:33:43.935Z,9.40
2018-02-17T11:36:11.417Z,9.30
2018-02-17T11:38:38.892Z,9.30
2018-02-17T11:41:06.735Z,8.90
2018-02-17T11:43:34.977Z,8.80
2018-02-17T11:46:02.471Z,8.80
2018-02-17T11:48:30.729Z,8.60
2018-02-17T11:50:59.049Z,9.30
2018-02-17T11:53:26.537Z,9.30
2018-02-17T11:55:54.310Z,9.80
2018-02-17T11:58:21.788Z,10.40
2018-02-17T12:00:50.039Z,11.80
2018-02-17T12:03:17.870Z,11.70
2018-02-17T12:05:45.404Z,11.70
2018-02-17T12:08:12.891Z,11.30
2018-02-17T12:10:40.718Z,11.50
2018-02-17T12:13:09.252Z,11.30
2018-02-17T12:15:36.801Z,11.30
2018-02-17T12:18:04.338Z,10.60
2018-02-17T12:20:31.834Z,9.50
2018-02-17T12:22:59.339Z,10.20
2018-02-17T12:25:27.847Z,9.70
2018-02-17T12:27:56.195Z,9.60
2018-02-17T12:30:24.462Z,9.50
2018-02-17T12:32:53.037Z,9.50
2018-02-17T12:35:20.525Z,9.20
2018-02-17T12:37:48.001Z,9.20
2018-02-17T12:40:15.491Z,9.60
2018-02-17T12:42:42.973Z,9.40
2018-02-17T12:45:11.228Z,9.40
2018-02-17T12:47:39.012Z,9.40
2018-02-17T12:50:07.271Z,8.90
2018-02-17T12:52:34.745Z,8.80
2018-02-17T12:55:03.227Z,9.10
2018-02-17T12:57:31.476Z,9.00
2018-02-17T12:59:59.736Z,9.20
2018-02-17T13:02:27.239Z,9.20
2018-02-17T13:04:54.736Z,9.20
2018-02-17T13:07:22.211Z,8.80
2018-02-17T13:09:49.709Z,8.90
2018-02-17T13:12:17.958Z,9.20
2018-02-17T13:14:45.484Z,9.20
2018-02-17T13:17:13.200Z,9.30
2018-02-17T13:19:41.451Z,8.60
2018-02-17T13:22:09.744Z,8.80
2018-02-17T13:24:37.258Z,8.80
2018-02-17T13:27:04.737Z,8.70
2018-02-17T13:29:33.007Z,8.60
2018-02-17T13:32:00.501Z,8.50
2018-02-17T13:34:27.969Z,8.70
2018-02-17T13:36:56.236Z,9.00
2018-02-17T13:39:24.862Z,8.80
2018-02-17T13:41:52.351Z,8.80
2018-02-17T13:44:19.844Z,8.80
2018-02-17T13:46:48.099Z,8.50
2018-02-17T13:49:15.582Z,8.50
2018-02-17T13:51:43.845Z,8.70
2018-02-17T13:54:11.324Z,8.60
2018-02-17T13:56:38.803Z,8.40
2018-02-17T13:59:06.297Z,8.40
2018-02-17T14:01:34.075Z,9.90
2018-02-17T14:04:01.557Z,8.20
2018-02-17T14:06:29.112Z,7.90
2018-02-17T14:08:56.598Z,8.00
2018-02-17T14:11:24.060Z,7.90
2018-02-17T14:13:51.567Z,8.10
2018-02-17T14:16:19.451Z,8.10
2018-02-17T14:18:47.813Z,8.20
2018-02-17T14:21:16.069Z,8.20
2018-02-17T14:23:43.956Z,8.10
2018-02-17T14:26:11.434Z,8.30
2018-02-17T14:28:38.916Z,8.30
2018-02-17T14:31:06.684Z,8.20
2018-02-17T14:33:34.187Z,8.20
2018-02-17T14:36:02.433Z,8.00
2018-02-17T14:38:29.953Z,8.00
2018-02-17T14:40:57.444Z,7.90
2018-02-17T14:43:24.931Z,7.70
2018-02-17T14:45:52.700Z,7.80
2018-02-17T14:48:20.174Z,8.00
2018-02-17T14:50:48.415Z,7.60
2018-02-17T14:53:16.241Z,7.60
2018-02-17T14:55:43.709Z,7.80
2018-02-17T14:58:11.205Z,7.80
2018-02-17T15:00:38.979Z,7.50
2018-02-17T15:03:07.224Z,7.60
2018-02-17T15:05:34.754Z,7.50
2018-02-17T15:08:02.574Z,7.50
2018-02-17T15:10:30.855Z,7.40
2018-02-17T15:12:58.326Z,7.40
2018-02-17T15:15:26.934Z,7.50
2018-02-17T15:17:54.424Z,7.50
2018-02-17T15:20:22.667Z,7.60
2018-02-17T15:22:50.488Z,7.60
2018-02-17T15:25:18.732Z,7.50
2018-02-17T15:27:46.210Z,7.50
2018-02-17T15:30:13.840Z,7.50
2018-02-17T15:32:41.710Z,7.30
2018-02-17T15:35:09.939Z,7.30
2018-02-17T15:37:38.551Z,7.30
2018-02-17T15:40:06.031Z,7.30
2018-02-17T15:42:33.499Z,7.30
2018-02-17T15:45:01.191Z,7.30
2018-02-17T15:47:29.460Z,7.20
2018-02-17T15:49:57.708Z,7.20
2018-02-17T15:52:25.449Z,7.20
2018-02-17T15:54:52.923Z,7.20
2018-02-17T15:57:20.393Z,7.10
2018-02-17T15:59:47.876Z,7.10
2018-02-17T16:02:16.134Z,7.10
2018-02-17T16:04:43.616Z,7.10
2018-02-17T16:07:12.290Z,7.10
2018-02-17T16:09:40.611Z,7.00
2018-02-17T16:12:08.106Z,6.90
2018-02-17T16:14:36.505Z,6.90
2018-02-17T16:17:05.703Z,6.90
2018-02-17T16:19:34.126Z,6.80
2018-02-17T16:22:01.611Z,6.80
2018-02-17T16:24:29.123Z,6.80
2018-02-17T16:26:56.621Z,6.80
2018-02-17T16:29:24.528Z,6.70
2018-02-17T16:31:52.763Z,6.50
2018-02-17T16:34:20.251Z,6.50
2018-02-17T16:36:48.839Z,6.50
2018-02-17T16:39:17.128Z,6.40
2018-02-17T16:41:45.368Z,6.40
2018-02-17T16:44:13.128Z,6.40
2018-02-17T16:46:40.605Z,6.30
2018-02-17T16:49:08.083Z,6.20
2018-02-17T16:51:35.587Z,6.20
2018-02-17T16:54:03.104Z,6.20
2018-02-17T16:56:30.596Z,6.20
2018-02-17T16:58:58.399Z,6.10
2018-02-17T17:01:25.871Z,6.00
2018-02-17T17:03:54.112Z,6.30
2018-02-17T17:06:21.604Z,6.20
2018-02-17T17:08:49.917Z,6.00
2018-02-17T17:11:17.395Z,6.00
2018-02-17T17:13:44.943Z,5.60
2018-02-17T17:16:12.440Z,5.60
2018-02-17T17:18:40.850Z,5.60
2018-02-17T17:21:09.434Z,5.60
2018-02-17T17:23:36.951Z,5.70
2018-02-17T17:26:04.439Z,5.40
2018-02-17T17:28:32.332Z,5.50
2018-02-17T17:30:59.845Z,5.30
2018-02-17T17:33:28.115Z,5.10
2018-02-17T17:35:55.903Z,5.10
2018-02-17T17:38:24.186Z,5.10
2018-02-17T17:40:51.671Z,5.10
2018-02-17T17:43:19.865Z,5.10
2018-02-17T17:45:47.368Z,5.00
2018-02-17T17:48:14.884Z,4.90
2018-02-17T17:50:42.808Z,4.90
2018-02-17T17:53:10.351Z,4.70
2018-02-17T17:55:38.614Z,4.70
2018-02-17T17:58:07.034Z,4.70
2018-02-17T18:00:34.512Z,4.70
2018-02-17T18:03:02.025Z,4.60
2018-02-17T18:05:30.299Z,4.50
2018-02-17T18:07:57.784Z,4.50
2018-02-17T18:10:26.300Z,4.50
2018-02-17T18:12:53.824Z,4.50
2018-02-17T18:15:23.017Z,4.50
2018-02-17T18:17:50.980Z,4.50
2018-02-17T18:20:20.032Z,4.50
2018-02-17T18:22:48.302Z,4.40
2018-02-17T18:25:15.785Z,4.40
2018-02-17T18:27:44.052Z,4.30
2018-02-17T18:30:12.327Z,4.30
2018-02-17T18:32:39.826Z,4.30
2018-02-17T18:35:07.322Z,4.30
2018-02-17T18:37:35.130Z,4.30
2018-02-17T18:40:02.616Z,4.30
2018-02-17T18:42:30.383Z,4.30
2018-02-17T18:44:57.938Z,4.30
2018-02-17T18:47:25.428Z,4.30
2018-02-17T18:49:52.958Z,4.20
2018-02-17T18:52:20.465Z,4.10
2018-02-17T18:54:48.729Z,4.00
2018-02-17T18:57:16.244Z,4.00
2018-02-17T18:59:43.822Z,4.00
2018-02-17T19:02:11.321Z,4.00
2018-02-17T19:04:38.996Z,4.00
2018-02-17T19:07:06.473Z,4.00
2018-02-17T19:09:34.815Z,4.00
2018-02-17T19:12:03.300Z,3.90
2018-02-17T19:14:32.554Z,3.90
2018-02-17T19:17:00.161Z,3.90
2018-02-17T19:19:28.123Z,3.90
2018-02-17T19:21:57.253Z,3.70
2018-02-17T19:24:25.604Z,3.60
2018-02-17T19:26:53.114Z,3.60
2018-02-17T19:29:20.608Z,3.40
2018-02-17T19:31:48.088Z,3.40
2018-02-17T19:34:15.607Z,3.30
2018-02-17T19:36:43.899Z,3.20
2018-02-17T19:39:12.159Z,3.20
2018-02-17T19:41:39.978Z,3.10
2018-02-17T19:44:07.492Z,3.00
2018-02-17T19:46:35.805Z,2.90
2018-02-17T19:49:03.473Z,2.90
2018-02-17T19:51:31.214Z,2.80
2018-02-17T19:53:58.700Z,2.80
2018-02-17T19:56:26.624Z,2.80
2018-02-17T19:58:54.507Z,2.80
2018-02-17T20:01:22.011Z,2.70
2018-02-17T20:03:49.525Z,2.70
2018-02-17T20:06:17.219Z,2.70
2018-02-17T20:08:44.720Z,2.70
2018-02-17T20:11:12.997Z,2.60
2018-02-17T20:13:40.560Z,2.60
2018-02-17T20:16:08.708Z,2.60
2018-02-17T20:18:36.611Z,2.60
2018-02-17T20:21:04.147Z,2.60
2018-02-17T20:23:31.694Z,2.50
2018-02-17T20:25:59.484Z,2.50
2018-02-17T20:28:27.768Z,2.70
2018-02-17T20:30:55.268Z,2.70
2018-02-17T20:33:23.913Z,2.80
2018-02-17T20:35:52.166Z,2.90
2018-02-17T20:38:19.640Z,2.80
2018-02-17T20:40:48.238Z,2.70
2018-02-17T20:43:16.497Z,2.80
2018-02-17T20:45:44.762Z,2.80
2018-02-17T20:48:13.597Z,2.80
2018-02-17T20:50:41.093Z,2.80
2018-02-17T20:53:08.590Z,2.70
2018-02-17T20:55:37.180Z,2.70
2018-02-17T20:58:04.667Z,2.60
2018-02-17T21:00:32.162Z,2.60
2018-02-17T21:02:59.756Z,2.60
2018-02-17T21:05:27.304Z,2.50
2018-02-17T21:07:55.540Z,2.30
2018-02-17T21:10:23.066Z,2.30
2018-02-17T21:12:50.559Z,2.10
2018-02-17T21:15:18.050Z,2.10
2018-02-17T21:17:46.651Z,2.10
2018-02-17T21:20:14.208Z,2.10
2018-02-17T21:22:41.721Z,2.30
2018-02-17T21:25:09.630Z,2.20
2018-02-17T21:27:37.133Z,2.20
2018-02-17T21:30:04.675Z,2.20
2018-02-17T21:32:32.508Z,2.30
2018-02-17T21:35:00.103Z,2.30
2018-02-17T21:37:27.626Z,2.30
2018-02-17T21:39:55.153Z,2.20
2018-02-17T21:42:22.647Z,2.20
2018-02-17T21:44:50.123Z,2.10
2018-02-17T21:47:17.679Z,2.10
2018-02-17T21:49:45.169Z,2.10
2018-02-17T21:52:12.669Z,2.00
2018-02-17T21:54:40.190Z,2.00
2018-02-17T21:57:07.713Z,2.00
2018-02-17T21:59:35.274Z,1.90
2018-02-17T22:02:16.090Z,1.80
2018-02-17T22:04:44.368Z,1.80
2018-02-17T22:07:12.612Z,1.70
2018-02-17T22:09:41.291Z,1.80
2018-02-17T22:12:08.791Z,1.80
2018-02-17T22:14:37.180Z,1.90
2018-02-17T22:17:05.651Z,2.00
2018-02-17T22:19:33.954Z,2.00
2018-02-17T22:24:35.312Z,2.00
2018-02-17T22:27:03.561Z,1.90
2018-02-17T22:29:31.060Z,1.90
2018-02-17T22:31:58.586Z,1.90
2018-02-17T22:34:26.874Z,1.80
2018-02-17T22:36:54.376Z,1.80
2018-02-17T22:47:55.844Z,1.70
2018-02-17T22:50:26.775Z,1.60
2018-02-17T22:52:54.284Z,1.60
2018-02-17T22:55:22.086Z,1.60
2018-02-17T22:57:50.324Z,1.60
2018-02-17T23:00:29.886Z,1.50
2018-02-17T23:02:57.476Z,1.50
2018-02-17T23:05:25.729Z,1.50
2018-02-17T23:07:53.208Z,1.40
2018-02-17T23:10:20.710Z,1.40
2018-02-17T23:12:48.210Z,1.40
2018-02-17T23:15:16.499Z,1.40
2018-02-17T23:17:44.129Z,1.40
2018-02-17T23:20:11.617Z,1.40
2018-02-17T23:22:39.136Z,1.30
2018-02-17T23:25:06.624Z,1.30
2018-02-17T23:27:34.868Z,1.20
2018-02-17T23:30:02.372Z,1.20
2018-02-17T23:32:29.904Z,1.20
2018-02-17T23:34:57.396Z,1.30
2018-02-17T23:37:25.381Z,1.20
2018-02-17T23:39:53.180Z,1.20
2018-02-17T23:42:20.695Z,1.20
2018-02-17T23:44:48.542Z,1.30
2018-02-17T23:47:16.792Z,1.20
2018-02-17T23:49:44.364Z,1.10
2018-02-17T23:52:12.785Z,1.10
2018-02-17T23:54:40.315Z,1.10
2018-02-17T23:57:08.649Z,1.00
2018-02-17T23:59:36.156Z,1.00
